createdAt,value
2017-10-28T00:00:17.130Z,101966
2017-10-28T00:02:45.326Z,101970
2017-10-28T00:05:14.662Z,101948
2017-10-28T00:07:42.871Z,101940
2017-10-28T00:10:11.078Z,101943
2017-10-28T00:12:40.023Z,101938
2017-10-28T00:15:08.319Z,101945
2017-10-28T00:17:36.521Z,101929
2017-10-28T00:20:05.760Z,101924
2017-10-28T00:22:33.953Z,101917
2017-10-28T00:25:02.122Z,101913
2017-10-28T00:27:30.316Z,101910
2017-10-28T00:29:58.531Z,101905
2017-10-28T00:32:32.143Z,101901
2017-10-28T00:35:06.027Z,101896
2017-10-28T00:37:34.261Z,101895
2017-10-28T00:40:02.494Z,101888
2017-10-28T00:42:30.701Z,101890
2017-10-28T00:44:59.953Z,101881
2017-10-28T00:47:28.172Z,101876
2017-10-28T00:52:30.872Z,101845
2017-10-28T00:54:59.088Z,101846
2017-10-28T00:57:28.124Z,101840
2017-10-28T00:59:56.339Z,101857
2017-10-28T01:02:25.483Z,101855
2017-10-28T01:04:53.754Z,101860
2017-10-28T01:07:21.938Z,101845
2017-10-28T01:09:50.116Z,101838
2017-10-28T01:12:18.296Z,101830
2017-10-28T01:14:46.503Z,101819
2017-10-28T01:17:14.691Z,101819
2017-10-28T01:19:43.640Z,101817
2017-10-28T01:22:11.855Z,101807
2017-10-28T01:24:40.818Z,101809
2017-10-28T01:27:09.145Z,101800
2017-10-28T01:29:37.341Z,101795
2017-10-28T01:32:06.634Z,101797
2017-10-28T01:34:34.869Z,101789
2017-10-28T01:37:03.802Z,101760
2017-10-28T01:39:31.983Z,101750
2017-10-28T01:42:00.175Z,101761
2017-10-28T01:44:28.432Z,101744
2017-10-28T01:46:57.006Z,101739
2017-10-28T01:49:25.215Z,101735
2017-10-28T01:51:53.408Z,101722
2017-10-28T01:54:22.359Z,101734
2017-10-28T01:56:50.550Z,101722
2017-10-28T01:59:18.784Z,101721
2017-10-28T02:01:46.965Z,101716
2017-10-28T02:04:15.151Z,101707
2017-10-28T02:06:43.383Z,101687
2017-10-28T02:09:11.575Z,101689
2017-10-28T02:11:39.770Z,101683
2017-10-28T02:14:07.963Z,101685
2017-10-28T02:16:36.135Z,101682
2017-10-28T02:19:04.393Z,101685
2017-10-28T02:21:32.567Z,101682
2017-10-28T02:24:00.764Z,101694
2017-10-28T02:26:28.959Z,101685
2017-10-28T02:28:57.958Z,101690
2017-10-28T02:31:26.160Z,101688
2017-10-28T02:33:54.748Z,101669
2017-10-28T02:36:22.935Z,101662
2017-10-28T02:38:51.151Z,101656
2017-10-28T02:41:20.163Z,101636
2017-10-28T02:43:48.340Z,101631
2017-10-28T02:46:16.627Z,101630
2017-10-28T02:48:44.813Z,101618
2017-10-28T02:51:12.995Z,101629
2017-10-28T02:53:41.235Z,101635
2017-10-28T02:56:09.439Z,101634
2017-10-28T02:58:37.664Z,101633
2017-10-28T03:01:06.616Z,101621
2017-10-28T03:03:35.191Z,101614
2017-10-28T03:06:03.385Z,101605
2017-10-28T03:08:31.565Z,101609
2017-10-28T03:11:00.559Z,101589
2017-10-28T03:13:28.740Z,101598
2017-10-28T03:15:57.727Z,101578
2017-10-28T03:18:26.699Z,101585
2017-10-28T03:20:54.939Z,101592
2017-10-28T03:23:23.169Z,101588
2017-10-28T03:25:52.565Z,101575
2017-10-28T03:28:20.764Z,101582
2017-10-28T03:30:49.736Z,101569
2017-10-28T03:33:17.964Z,101567
2017-10-28T03:35:46.135Z,101542
2017-10-28T03:38:14.319Z,101559
2017-10-28T03:40:42.516Z,101557
2017-10-28T03:43:10.707Z,101548
2017-10-28T03:45:39.664Z,101523
2017-10-28T03:48:07.862Z,101513
2017-10-28T03:50:36.062Z,101508
2017-10-28T03:53:04.251Z,101510
2017-10-28T03:55:32.534Z,101509
2017-10-28T03:58:01.823Z,101497
2017-10-28T04:00:30.075Z,101499
2017-10-28T04:02:59.042Z,101489
2017-10-28T04:05:27.225Z,101489
2017-10-28T04:07:55.475Z,101474
2017-10-28T04:10:23.672Z,101469
2017-10-28T04:12:51.827Z,101466
2017-10-28T04:15:19.998Z,101463
2017-10-28T04:17:48.179Z,101461
2017-10-28T04:20:16.650Z,101449
2017-10-28T04:22:45.093Z,101446
2017-10-28T04:25:13.371Z,101432
2017-10-28T04:27:41.580Z,101424
2017-10-28T04:30:09.790Z,101417
2017-10-28T04:32:38.745Z,101408
2017-10-28T04:35:07.032Z,101401
2017-10-28T04:37:35.207Z,101402
2017-10-28T04:40:03.382Z,101402
2017-10-28T04:42:31.563Z,101393
2017-10-28T04:45:00.520Z,101388
2017-10-28T04:47:28.711Z,101389
2017-10-28T04:49:56.905Z,101390
2017-10-28T04:52:25.859Z,101384
2017-10-28T04:54:54.050Z,101382
2017-10-28T04:57:22.279Z,101372
2017-10-28T04:59:50.495Z,101364
2017-10-28T05:02:18.684Z,101361
2017-10-28T05:04:46.903Z,101351
2017-10-28T05:07:15.088Z,101360
2017-10-28T05:09:43.276Z,101349
2017-10-28T05:12:11.471Z,101350
2017-10-28T05:14:39.665Z,101336
2017-10-28T05:17:08.599Z,101315
2017-10-28T05:19:36.792Z,101310
2017-10-28T05:22:04.986Z,101296
2017-10-28T05:24:33.179Z,101298
2017-10-28T05:27:01.901Z,101304
2017-10-28T05:29:30.096Z,101303
2017-10-28T05:31:58.306Z,101325
2017-10-28T05:34:27.262Z,101316
2017-10-28T05:36:55.481Z,101291
2017-10-28T05:39:24.448Z,101303
2017-10-28T05:41:52.608Z,101292
2017-10-28T05:44:20.794Z,101300
2017-10-28T05:46:48.970Z,101290
2017-10-28T05:49:17.915Z,101289
2017-10-28T05:51:46.106Z,101284
2017-10-28T05:54:14.350Z,101280
2017-10-28T05:56:42.938Z,101278
2017-10-28T05:59:11.123Z,101285
2017-10-28T06:01:39.303Z,101310
2017-10-28T06:04:07.486Z,101304
2017-10-28T06:06:35.683Z,101310
2017-10-28T06:09:03.844Z,101297
2017-10-28T06:11:32.027Z,101291
2017-10-28T06:14:00.212Z,101283
2017-10-28T06:16:29.163Z,101288
2017-10-28T06:18:57.353Z,101281
2017-10-28T06:21:25.549Z,101276
2017-10-28T06:23:54.515Z,101274
2017-10-28T06:26:22.687Z,101274
2017-10-28T06:28:50.896Z,101272
2017-10-28T06:31:19.893Z,101270
2017-10-28T06:33:48.179Z,101263
2017-10-28T06:36:16.394Z,101265
2017-10-28T06:38:44.590Z,101277
2017-10-28T06:41:12.790Z,101254
2017-10-28T06:43:40.989Z,101234
2017-10-28T06:46:09.186Z,101227
2017-10-28T06:48:37.762Z,101232
2017-10-28T06:51:05.966Z,101218
2017-10-28T06:53:34.148Z,101210
2017-10-28T06:56:02.348Z,101215
2017-10-28T06:58:30.618Z,101203
2017-10-28T07:00:58.832Z,101213
2017-10-28T07:03:27.026Z,101201
2017-10-28T07:05:55.558Z,101202
2017-10-28T07:08:23.827Z,101206
2017-10-28T07:10:51.994Z,101205
2017-10-28T07:13:20.178Z,101201
2017-10-28T07:15:49.135Z,101198
2017-10-28T07:18:17.332Z,101182
2017-10-28T07:20:45.517Z,101171
2017-10-28T07:23:13.711Z,101160
2017-10-28T07:25:41.909Z,101166
2017-10-28T07:28:10.116Z,101176
2017-10-28T07:30:39.031Z,101167
2017-10-28T07:33:07.231Z,101171
2017-10-28T07:35:35.434Z,101163
2017-10-28T07:38:03.635Z,101165
2017-10-28T07:40:31.826Z,101162
2017-10-28T07:43:00.020Z,101156
2017-10-28T07:45:28.259Z,101155
2017-10-28T07:47:56.511Z,101157
2017-10-28T07:50:25.568Z,101145
2017-10-28T07:52:53.775Z,101154
2017-10-28T07:55:22.721Z,101143
2017-10-28T07:57:50.922Z,101145
2017-10-28T08:00:19.115Z,101152
2017-10-28T08:02:48.270Z,101147
2017-10-28T08:05:16.455Z,101134
2017-10-28T08:07:44.679Z,101125
2017-10-28T08:10:12.971Z,101118
2017-10-28T08:12:41.158Z,101118
2017-10-28T08:15:09.675Z,101102
2017-10-28T08:17:37.863Z,101111
2017-10-28T08:20:06.858Z,101119
2017-10-28T08:22:35.825Z,101128
2017-10-28T08:25:04.003Z,101118
2017-10-28T08:27:32.435Z,101126
2017-10-28T08:30:00.673Z,101123
2017-10-28T08:32:29.616Z,101110
2017-10-28T08:34:57.834Z,101101
2017-10-28T08:37:26.790Z,101101
2017-10-28T08:39:55.064Z,101099
2017-10-28T08:42:23.260Z,101096
2017-10-28T08:44:51.457Z,101087
2017-10-28T08:47:20.408Z,101084
2017-10-28T08:49:48.593Z,101077
2017-10-28T08:52:16.817Z,101055
2017-10-28T08:54:45.039Z,101050
2017-10-28T08:57:13.231Z,101049
2017-10-28T08:59:42.203Z,101068
2017-10-28T09:02:10.375Z,101057
2017-10-28T09:04:38.644Z,101043
2017-10-28T09:07:06.829Z,101040
2017-10-28T09:09:35.024Z,101023
2017-10-28T09:12:04.014Z,101027
2017-10-28T09:14:33.008Z,101017
2017-10-28T09:17:03.852Z,101019
2017-10-28T09:19:32.795Z,101012
2017-10-28T09:22:00.992Z,101013
2017-10-28T09:24:29.881Z,101011
2017-10-28T09:26:58.100Z,101005
2017-10-28T09:29:26.453Z,101000
2017-10-28T09:31:54.649Z,100997
2017-10-28T09:34:22.836Z,100997
2017-10-28T09:36:52.231Z,101001
2017-10-28T09:39:20.435Z,100994
2017-10-28T09:41:48.990Z,101011
2017-10-28T09:44:17.190Z,101002
2017-10-28T09:46:45.394Z,101005
2017-10-28T09:49:13.562Z,101002
2017-10-28T09:51:42.156Z,100998
2017-10-28T09:54:11.106Z,101003
2017-10-28T09:56:39.312Z,100986
2017-10-28T09:59:07.482Z,100985
2017-10-28T10:01:36.547Z,100984
2017-10-28T10:04:04.741Z,100988
2017-10-28T10:06:32.926Z,100984
2017-10-28T10:09:01.187Z,100976
2017-10-28T10:11:29.542Z,100983
2017-10-28T10:13:58.144Z,100984
2017-10-28T10:16:26.335Z,100983
2017-10-28T10:18:55.691Z,100981
2017-10-28T10:21:23.916Z,100971
2017-10-28T10:23:52.919Z,100976
2017-10-28T10:26:21.891Z,100964
2017-10-28T10:28:50.102Z,100971
2017-10-28T10:31:18.296Z,100963
2017-10-28T10:33:47.148Z,100958
2017-10-28T10:36:16.148Z,100960
2017-10-28T10:38:44.357Z,100959
2017-10-28T10:41:12.568Z,100951
2017-10-28T10:43:41.597Z,100946
2017-10-28T10:46:09.808Z,100933
2017-10-28T10:48:37.985Z,100924
2017-10-28T10:51:06.183Z,100912
2017-10-28T10:53:35.258Z,100900
2017-10-28T10:56:04.116Z,100907
2017-10-28T10:58:32.335Z,100906
2017-10-28T11:01:00.543Z,100903
2017-10-28T11:03:28.751Z,100893
2017-10-28T11:05:56.966Z,100889
2017-10-28T11:08:25.910Z,100878
2017-10-28T11:10:54.195Z,100858
2017-10-28T11:13:22.416Z,100865
2017-10-28T11:15:51.400Z,100865
2017-10-28T11:18:20.383Z,100854
2017-10-28T11:20:48.600Z,100837
2017-10-28T11:23:16.813Z,100839
2017-10-28T11:25:45.007Z,100830
2017-10-28T11:28:13.998Z,100820
2017-10-28T11:30:43.406Z,100817
2017-10-28T11:33:12.549Z,100804
2017-10-28T11:35:40.746Z,100805
2017-10-28T11:38:08.931Z,100811
2017-10-28T11:40:37.141Z,100820
2017-10-28T11:43:05.373Z,100814
2017-10-28T11:45:33.660Z,100806
2017-10-28T11:48:01.848Z,100793
2017-10-28T11:50:30.880Z,100801
2017-10-28T11:52:59.116Z,100793
2017-10-28T11:55:28.532Z,100782
2017-10-28T11:57:56.789Z,100782
2017-10-28T12:00:25.745Z,100766
2017-10-28T12:02:56.728Z,100773
2017-10-28T12:05:25.698Z,100779
2017-10-28T12:07:53.948Z,100764
2017-10-28T12:10:22.145Z,100765
2017-10-28T12:12:50.407Z,100751
2017-10-28T12:15:18.669Z,100763
2017-10-28T12:18:31.018Z,100757
2017-10-28T12:24:15.402Z,100747
2017-10-28T12:26:50.777Z,100745
2017-10-28T12:29:20.312Z,100745
2017-10-28T12:31:59.537Z,100732
2017-10-28T12:35:08.670Z,100730
2017-10-28T12:37:36.941Z,100728
2017-10-28T12:40:05.082Z,100728
2017-10-28T12:42:33.282Z,100727
2017-10-28T12:45:01.451Z,100726
2017-10-28T12:47:29.636Z,100720
2017-10-28T12:49:57.819Z,100701
2017-10-28T12:52:25.998Z,100694
2017-10-28T12:54:54.569Z,100702
2017-10-28T12:57:22.752Z,100693
2017-10-28T12:59:50.938Z,100678
2017-10-28T13:02:19.169Z,100676
2017-10-28T13:04:48.121Z,100666
2017-10-28T13:07:17.073Z,100653
2017-10-28T13:09:45.274Z,100640
2017-10-28T13:12:14.247Z,100646
2017-10-28T13:14:42.450Z,100646
2017-10-28T13:17:11.391Z,100640
2017-10-28T13:19:39.619Z,100632
2017-10-28T13:22:07.829Z,100639
2017-10-28T13:24:36.030Z,100628
2017-10-28T13:27:04.206Z,100620
2017-10-28T13:29:32.418Z,100634
2017-10-28T13:32:00.596Z,100640
2017-10-28T13:34:28.906Z,100632
2017-10-28T13:36:58.094Z,100608
2017-10-28T13:39:26.303Z,100613
2017-10-28T13:41:54.481Z,100614
2017-10-28T13:44:22.650Z,100602
2017-10-28T13:46:50.840Z,100604
2017-10-28T13:49:19.815Z,100610
2017-10-28T13:51:47.969Z,100609
2017-10-28T13:54:16.153Z,100607
2017-10-28T13:56:44.340Z,100616
2017-10-28T13:59:12.533Z,100590
2017-10-28T14:01:41.471Z,100597
2017-10-28T14:04:09.664Z,100589
2017-10-28T14:06:37.903Z,100558
2017-10-28T14:09:06.091Z,100573
2017-10-28T14:11:35.052Z,100576
2017-10-28T14:14:03.246Z,100572
2017-10-28T14:16:31.780Z,100557
2017-10-28T14:19:00.730Z,100558
2017-10-28T14:21:28.935Z,100554
2017-10-28T14:23:57.927Z,100551
2017-10-28T14:26:26.146Z,100537
2017-10-28T14:28:54.464Z,100549
2017-10-28T14:31:22.667Z,100536
2017-10-28T14:33:50.912Z,100537
2017-10-28T14:36:19.158Z,100557
2017-10-28T14:38:47.359Z,100547
2017-10-28T14:41:15.540Z,100552
2017-10-28T14:43:43.755Z,100533
2017-10-28T14:46:12.099Z,100536
2017-10-28T14:48:41.054Z,100514
2017-10-28T14:51:09.258Z,100514
2017-10-28T14:53:37.501Z,100523
2017-10-28T14:56:05.723Z,100513
2017-10-28T14:58:34.671Z,100519
2017-10-28T15:01:02.846Z,100522
2017-10-28T15:03:31.054Z,100520
2017-10-28T15:06:00.090Z,100517
2017-10-28T15:08:28.362Z,100504
2017-10-28T15:10:56.566Z,100514
2017-10-28T15:13:24.866Z,100507
2017-10-28T15:15:53.065Z,100512
2017-10-28T15:18:21.282Z,100507
2017-10-28T15:23:23.870Z,100510
2017-10-28T15:25:52.047Z,100492
2017-10-28T15:28:20.235Z,100490
2017-10-28T15:30:48.450Z,100480
2017-10-28T15:33:16.655Z,100474
2017-10-28T15:35:44.858Z,100469
2017-10-28T15:38:13.081Z,100456
2017-10-28T15:40:41.275Z,100452
2017-10-28T15:43:09.470Z,100448
2017-10-28T15:45:37.658Z,100433
2017-10-28T15:48:06.232Z,100432
2017-10-28T15:50:34.402Z,100425
2017-10-28T15:53:02.594Z,100429
2017-10-28T15:55:30.804Z,100416
2017-10-28T15:57:58.982Z,100411
2017-10-28T16:00:27.178Z,100407
2017-10-28T16:02:55.371Z,100409
2017-10-28T16:05:23.558Z,100404
2017-10-28T16:07:51.740Z,100400
2017-10-28T16:10:20.671Z,100393
2017-10-28T16:12:48.879Z,100381
2017-10-28T16:15:17.066Z,100377
2017-10-28T16:17:45.229Z,100367
2017-10-28T16:20:13.406Z,100369
2017-10-28T16:22:41.640Z,100358
2017-10-28T16:25:10.110Z,100350
2017-10-28T16:27:38.311Z,100350
2017-10-28T16:30:06.486Z,100347
2017-10-28T16:32:34.668Z,100354
2017-10-28T16:35:02.891Z,100325
2017-10-28T16:37:31.098Z,100339
2017-10-28T16:39:59.286Z,100335
2017-10-28T16:42:27.491Z,100333
2017-10-28T16:44:56.434Z,100331
2017-10-28T16:47:24.646Z,100322
2017-10-28T16:49:52.854Z,100334
2017-10-28T16:52:21.068Z,100340
2017-10-28T16:54:49.298Z,100334
2017-10-28T16:57:17.519Z,100323
2017-10-28T16:59:45.757Z,100322
2017-10-28T17:02:13.934Z,100316
2017-10-28T17:04:42.131Z,100297
2017-10-28T17:07:10.312Z,100293
2017-10-28T17:09:38.492Z,100289
2017-10-28T17:12:06.673Z,100279
2017-10-28T17:14:34.881Z,100283
2017-10-28T17:17:03.868Z,100280
2017-10-28T17:19:32.826Z,100273
2017-10-28T17:22:01.043Z,100274
2017-10-28T17:24:29.220Z,100277
2017-10-28T17:26:57.429Z,100266
2017-10-28T17:29:25.624Z,100250
2017-10-28T17:31:53.872Z,100249
2017-10-28T17:34:22.075Z,100245
2017-10-28T17:36:50.288Z,100257
2017-10-28T17:39:18.468Z,100250
2017-10-28T17:41:46.640Z,100257
2017-10-28T17:44:14.814Z,100252
2017-10-28T17:46:43.006Z,100239
2017-10-28T17:49:11.184Z,100234
2017-10-28T17:51:39.358Z,100239
2017-10-28T17:54:07.565Z,100231
2017-10-28T17:56:35.740Z,100227
2017-10-28T17:59:03.942Z,100210
2017-10-28T18:01:32.147Z,100215
2017-10-28T18:04:00.335Z,100211
2017-10-28T18:06:28.517Z,100220
2017-10-28T18:08:56.704Z,100203
2017-10-28T18:11:24.898Z,100192
2017-10-28T18:13:53.847Z,100196
2017-10-28T18:16:22.045Z,100184
2017-10-28T18:18:50.235Z,100181
2017-10-28T18:21:19.271Z,100167
2017-10-28T18:23:47.520Z,100166
2017-10-28T18:26:15.751Z,100149
2017-10-28T18:28:43.930Z,100146
2017-10-28T18:31:12.101Z,100141
2017-10-28T18:33:40.282Z,100145
2017-10-28T18:36:08.479Z,100154
2017-10-28T18:38:37.434Z,100135
2017-10-28T18:41:05.617Z,100139
2017-10-28T18:43:33.875Z,100118
2017-10-28T18:46:02.082Z,100112
2017-10-28T18:48:31.030Z,100107
2017-10-28T18:50:59.330Z,100119
2017-10-28T18:53:27.509Z,100094
2017-10-28T18:55:55.699Z,100077
2017-10-28T18:58:23.936Z,100076
2017-10-28T19:00:52.138Z,100060
2017-10-28T19:03:21.127Z,100048
2017-10-28T19:05:50.092Z,100048
2017-10-28T19:08:18.266Z,100040
2017-10-28T19:10:46.468Z,100020
2017-10-28T19:13:15.886Z,100024
2017-10-28T19:15:44.075Z,100022
2017-10-28T19:18:12.277Z,100007
2017-10-28T19:20:40.460Z,100006
2017-10-28T19:23:08.647Z,99987
2017-10-28T19:25:36.845Z,99977
2017-10-28T19:28:05.023Z,99972
2017-10-28T19:30:33.960Z,99953
2017-10-28T19:33:02.187Z,99938
2017-10-28T19:35:30.384Z,99938
2017-10-28T19:37:58.568Z,99923
2017-10-28T19:40:26.778Z,99923
2017-10-28T19:42:54.983Z,99924
2017-10-28T19:45:23.180Z,99925
2017-10-28T19:47:51.378Z,99908
2017-10-28T19:50:19.567Z,99897
2017-10-28T19:52:47.768Z,99893
2017-10-28T19:55:16.722Z,99884
2017-10-28T19:57:44.927Z,99877
2017-10-28T20:00:13.878Z,99876
2017-10-28T20:02:42.082Z,99867
2017-10-28T20:05:10.282Z,99873
2017-10-28T20:07:38.459Z,99869
2017-10-28T20:10:06.640Z,99867
2017-10-28T20:12:34.806Z,99847
2017-10-28T20:15:03.194Z,99838
2017-10-28T20:17:31.371Z,99822
2017-10-28T20:19:59.576Z,99801
2017-10-28T20:22:27.750Z,99817
2017-10-28T20:24:55.990Z,99807
2017-10-28T20:27:24.161Z,99804
2017-10-28T20:29:52.335Z,99794
2017-10-28T20:32:20.521Z,99780
2017-10-28T20:34:48.775Z,99780
2017-10-28T20:37:16.979Z,99780
2017-10-28T20:39:45.152Z,99773
2017-10-28T20:42:13.384Z,99768
2017-10-28T20:44:41.580Z,99763
2017-10-28T20:47:09.815Z,99752
2017-10-28T20:49:38.768Z,99739
2017-10-28T20:52:06.954Z,99730
2017-10-28T20:54:35.159Z,99717
2017-10-28T20:57:03.595Z,99726
2017-10-28T20:59:31.815Z,99708
2017-10-28T21:02:00.786Z,99708
2017-10-28T21:04:29.015Z,99700
2017-10-28T21:06:57.242Z,99682
2017-10-28T21:09:26.198Z,99685
2017-10-28T21:11:54.381Z,99674
2017-10-28T21:14:22.572Z,99686
2017-10-28T21:16:50.783Z,99683
2017-10-28T21:19:19.027Z,99664
2017-10-28T21:21:47.253Z,99666
2017-10-28T21:24:15.492Z,99657
2017-10-28T21:26:44.504Z,99661
2017-10-28T21:29:12.812Z,99651
2017-10-28T21:31:41.222Z,99643
2017-10-28T21:34:09.414Z,99644
2017-10-28T21:36:38.375Z,99638
2017-10-28T21:39:06.679Z,99629
2017-10-28T21:41:35.630Z,99616
2017-10-28T21:44:03.838Z,99603
2017-10-28T21:46:32.776Z,99587
2017-10-28T21:49:00.963Z,99581
2017-10-28T21:51:29.149Z,99569
2017-10-28T21:53:57.346Z,99573
2017-10-28T21:56:26.321Z,99581
2017-10-28T21:58:56.433Z,99548
2017-10-28T22:01:26.093Z,99546
2017-10-28T22:03:54.355Z,99534
2017-10-28T22:06:22.547Z,99526
2017-10-28T22:08:52.171Z,99540
2017-10-28T22:11:20.375Z,99529
2017-10-28T22:13:48.589Z,99527
2017-10-28T22:16:16.779Z,99519
2017-10-28T22:18:44.979Z,99498
2017-10-28T22:21:13.159Z,99483
2017-10-28T22:23:41.347Z,99478
2017-10-28T22:26:09.523Z,99475
2017-10-28T22:28:37.796Z,99464
2017-10-28T22:31:06.057Z,99458
2017-10-28T22:33:34.517Z,99445
2017-10-28T22:36:02.707Z,99445
2017-10-28T22:38:30.892Z,99436
2017-10-28T22:40:59.061Z,99439
2017-10-28T22:43:27.250Z,99439
2017-10-28T22:45:55.443Z,99412
2017-10-28T22:48:24.497Z,99425
2017-10-28T22:50:52.716Z,99411
2017-10-28T22:53:20.928Z,99408
2017-10-28T22:55:49.122Z,99394
2017-10-28T22:58:17.293Z,99395
2017-10-28T23:00:45.463Z,99383
2017-10-28T23:03:13.655Z,99359
2017-10-28T23:05:42.657Z,99339
2017-10-28T23:08:11.606Z,99359
2017-10-28T23:10:39.833Z,99359
2017-10-28T23:13:08.091Z,99370
2017-10-28T23:15:37.068Z,99365
2017-10-28T23:18:05.259Z,99355
2017-10-28T23:20:34.241Z,99338
2017-10-28T23:23:02.418Z,99333
2017-10-28T23:25:31.366Z,99338
2017-10-28T23:27:59.536Z,99333
2017-10-28T23:30:27.748Z,99308
2017-10-28T23:32:55.993Z,99318
2017-10-28T23:35:24.949Z,99295
2017-10-28T23:37:53.104Z,99297
2017-10-28T23:40:22.038Z,99292
2017-10-28T23:42:50.219Z,99263
2017-10-28T23:45:18.408Z,99251
2017-10-28T23:47:46.648Z,99255
2017-10-28T23:50:14.845Z,99246
2017-10-28T23:52:43.046Z,99226
2017-10-28T23:55:11.256Z,99216
2017-10-28T23:57:39.461Z,99218
